sensor_id;sensor_type;location;lat;lon;timestamp;P1;durP1;ratioP1;P2;durP2;ratioP2
22922;SDS011;11627;51.322;22.816;2022-09-09T00:02:21;22.00;;;11.43;;
22922;SDS011;11627;51.322;22.816;2022-09-09T00:07:52;18.50;;;9.85;;
22922;SDS011;11627;51.322;22.816;2022-09-09T00:10:32;22.08;;;10.88;;
22922;SDS011;11627;51.322;22.816;2022-09-09T00:13:11;19.17;;;9.73;;
22922;SDS011;11627;51.322;22.816;2022-09-09T00:21:37;22.80;;;10.38;;
22922;SDS011;11627;51.322;22.816;2022-09-09T00:24:10;22.20;;;10.73;;
22922;SDS011;11627;51.322;22.816;2022-09-09T00:26:51;22.65;;;10.23;;
22922;SDS011;11627;51.322;22.816;2022-09-09T00:30:13;26.48;;;11.80;;
22922;SDS011;11627;51.322;22.816;2022-09-09T00:32:19;22.08;;;10.85;;
22922;SDS011;11627;51.322;22.816;2022-09-09T00:34:54;23.88;;;12.13;;
22922;SDS011;11627;51.322;22.816;2022-09-09T00:37:25;21.13;;;10.93;;
22922;SDS011;11627;51.322;22.816;2022-09-09T00:39:54;22.88;;;12.05;;
22922;SDS011;11627;51.322;22.816;2022-09-09T00:42:40;24.30;;;12.43;;
22922;SDS011;11627;51.322;22.816;2022-09-09T00:45:24;22.45;;;10.90;;
22922;SDS011;11627;51.322;22.816;2022-09-09T00:48:38;24.90;;;10.93;;
22922;SDS011;11627;51.322;22.816;2022-09-09T00:54:40;25.13;;;11.77;;
22922;SDS011;11627;51.322;22.816;2022-09-09T00:57:27;26.25;;;12.27;;
22922;SDS011;11627;51.322;22.816;2022-09-09T01:06:11;23.40;;;11.77;;
22922;SDS011;11627;51.322;22.816;2022-09-09T01:20:02;21.45;;;11.02;;
22922;SDS011;11627;51.322;22.816;2022-09-09T01:28:10;20.60;;;11.00;;
22922;SDS011;11627;51.322;22.816;2022-09-09T01:30:41;22.27;;;9.98;;
22922;SDS011;11627;51.322;22.816;2022-09-09T01:33:10;19.65;;;10.27;;
22922;SDS011;11627;51.322;22.816;2022-09-09T01:38:52;19.85;;;9.48;;
22922;SDS011;11627;51.322;22.816;2022-09-09T01:41:20;21.63;;;10.50;;
22922;SDS011;11627;51.322;22.816;2022-09-09T01:43:46;20.42;;;9.50;;
22922;SDS011;11627;51.322;22.816;2022-09-09T01:46:12;20.30;;;9.45;;
22922;SDS011;11627;51.322;22.816;2022-09-09T01:48:38;16.60;;;9.02;;
22922;SDS011;11627;51.322;22.816;2022-09-09T01:51:07;17.45;;;9.38;;
22922;SDS011;11627;51.322;22.816;2022-09-09T01:53:35;16.20;;;9.27;;
22922;SDS011;11627;51.322;22.816;2022-09-09T01:56:15;19.17;;;9.70;;
22922;SDS011;11627;51.322;22.816;2022-09-09T02:13:01;17.20;;;8.07;;
22922;SDS011;11627;51.322;22.816;2022-09-09T02:15:52;17.58;;;8.27;;
22922;SDS011;11627;51.322;22.816;2022-09-09T02:19:01;15.38;;;7.35;;
22922;SDS011;11627;51.322;22.816;2022-09-09T02:21:37;18.83;;;8.38;;
22922;SDS011;11627;51.322;22.816;2022-09-09T02:24:07;11.90;;;7.40;;
22922;SDS011;11627;51.322;22.816;2022-09-09T02:26:36;22.60;;;7.95;;
22922;SDS011;11627;51.322;22.816;2022-09-09T02:29:17;16.92;;;8.18;;
22922;SDS011;11627;51.322;22.816;2022-09-09T02:31:49;14.90;;;7.35;;
22922;SDS011;11627;51.322;22.816;2022-09-09T02:34:17;13.65;;;7.28;;
22922;SDS011;11627;51.322;22.816;2022-09-09T02:36:47;15.48;;;7.80;;
22922;SDS011;11627;51.322;22.816;2022-09-09T02:39:14;13.02;;;7.65;;
22922;SDS011;11627;51.322;22.816;2022-09-09T02:41:41;17.20;;;8.20;;
22922;SDS011;11627;51.322;22.816;2022-09-09T02:44:14;13.40;;;7.63;;
22922;SDS011;11627;51.322;22.816;2022-09-09T02:46:47;15.73;;;8.18;;
22922;SDS011;11627;51.322;22.816;2022-09-09T02:55:42;14.55;;;7.32;;
22922;SDS011;11627;51.322;22.816;2022-09-09T02:58:15;13.52;;;7.28;;
22922;SDS011;11627;51.322;22.816;2022-09-09T03:00:43;16.60;;;8.02;;
22922;SDS011;11627;51.322;22.816;2022-09-09T03:03:14;15.18;;;8.18;;
22922;SDS011;11627;51.322;22.816;2022-09-09T03:05:41;14.77;;;7.60;;
22922;SDS011;11627;51.322;22.816;2022-09-09T03:08:08;12.68;;;7.00;;
22922;SDS011;11627;51.322;22.816;2022-09-09T03:10:36;12.68;;;7.03;;
22922;SDS011;11627;51.322;22.816;2022-09-09T03:13:02;13.38;;;7.03;;
22922;SDS011;11627;51.322;22.816;2022-09-09T03:15:30;12.98;;;7.72;;
22922;SDS011;11627;51.322;22.816;2022-09-09T03:17:57;15.10;;;7.53;;
22922;SDS011;11627;51.322;22.816;2022-09-09T03:20:24;13.38;;;7.82;;
22922;SDS011;11627;51.322;22.816;2022-09-09T03:22:53;13.88;;;8.07;;
22922;SDS011;11627;51.322;22.816;2022-09-09T03:25:20;12.57;;;7.55;;
22922;SDS011;11627;51.322;22.816;2022-09-09T03:27:51;14.50;;;7.68;;
22922;SDS011;11627;51.322;22.816;2022-09-09T03:30:22;18.48;;;8.13;;
22922;SDS011;11627;51.322;22.816;2022-09-09T03:32:51;16.33;;;7.93;;
22922;SDS011;11627;51.322;22.816;2022-09-09T03:35:17;15.80;;;8.13;;
22922;SDS011;11627;51.322;22.816;2022-09-09T03:37:43;14.23;;;7.85;;
22922;SDS011;11627;51.322;22.816;2022-09-09T03:40:09;15.00;;;7.95;;
22922;SDS011;11627;51.322;22.816;2022-09-09T03:42:36;14.57;;;8.13;;
22922;SDS011;11627;51.322;22.816;2022-09-09T03:45:03;15.27;;;8.13;;
22922;SDS011;11627;51.322;22.816;2022-09-09T03:47:34;16.35;;;8.48;;
22922;SDS011;11627;51.322;22.816;2022-09-09T03:50:00;15.85;;;8.65;;
22922;SDS011;11627;51.322;22.816;2022-09-09T03:52:26;15.45;;;8.25;;
22922;SDS011;11627;51.322;22.816;2022-09-09T03:54:52;13.07;;;8.10;;
22922;SDS011;11627;51.322;22.816;2022-09-09T03:57:19;15.60;;;8.10;;
22922;SDS011;11627;51.322;22.816;2022-09-09T03:59:46;15.70;;;7.70;;
22922;SDS011;11627;51.322;22.816;2022-09-09T04:02:12;14.63;;;7.90;;
22922;SDS011;11627;51.322;22.816;2022-09-09T04:04:38;13.38;;;7.93;;
22922;SDS011;11627;51.322;22.816;2022-09-09T04:07:04;16.98;;;8.95;;
22922;SDS011;11627;51.322;22.816;2022-09-09T04:09:32;16.27;;;8.70;;
22922;SDS011;11627;51.322;22.816;2022-09-09T04:11:59;15.15;;;7.85;;
22922;SDS011;11627;51.322;22.816;2022-09-09T04:14:25;16.77;;;8.30;;
22922;SDS011;11627;51.322;22.816;2022-09-09T04:16:53;16.27;;;8.55;;
22922;SDS011;11627;51.322;22.816;2022-09-09T04:19:22;17.17;;;8.40;;
22922;SDS011;11627;51.322;22.816;2022-09-09T04:21:48;14.48;;;7.97;;
22922;SDS011;11627;51.322;22.816;2022-09-09T04:24:16;16.02;;;8.02;;
22922;SDS011;11627;51.322;22.816;2022-09-09T04:26:42;15.55;;;8.05;;
22922;SDS011;11627;51.322;22.816;2022-09-09T04:29:08;12.73;;;8.13;;
22922;SDS011;11627;51.322;22.816;2022-09-09T04:31:34;15.18;;;7.95;;
22922;SDS011;11627;51.322;22.816;2022-09-09T04:34:00;15.85;;;7.75;;
22922;SDS011;11627;51.322;22.816;2022-09-09T04:36:31;17.02;;;8.40;;
22922;SDS011;11627;51.322;22.816;2022-09-09T04:38:57;15.50;;;8.55;;
22922;SDS011;11627;51.322;22.816;2022-09-09T04:41:23;16.42;;;8.25;;
22922;SDS011;11627;51.322;22.816;2022-09-09T04:43:49;14.98;;;8.70;;
22922;SDS011;11627;51.322;22.816;2022-09-09T04:46:17;15.75;;;8.57;;
22922;SDS011;11627;51.322;22.816;2022-09-09T04:48:43;14.77;;;8.65;;
22922;SDS011;11627;51.322;22.816;2022-09-09T04:51:11;14.02;;;8.32;;
22922;SDS011;11627;51.322;22.816;2022-09-09T04:53:39;14.43;;;8.73;;
22922;SDS011;11627;51.322;22.816;2022-09-09T04:56:09;14.32;;;8.25;;
22922;SDS011;11627;51.322;22.816;2022-09-09T04:58:38;17.70;;;8.68;;
22922;SDS011;11627;51.322;22.816;2022-09-09T05:01:08;14.68;;;8.35;;
22922;SDS011;11627;51.322;22.816;2022-09-09T05:03:35;16.40;;;8.65;;
22922;SDS011;11627;51.322;22.816;2022-09-09T05:06:03;15.82;;;8.13;;
22922;SDS011;11627;51.322;22.816;2022-09-09T05:08:33;15.32;;;8.52;;
22922;SDS011;11627;51.322;22.816;2022-09-09T05:11:01;11.15;;;7.90;;
22922;SDS011;11627;51.322;22.816;2022-09-09T05:13:27;14.73;;;7.97;;
22922;SDS011;11627;51.322;22.816;2022-09-09T05:15:53;15.23;;;8.93;;
22922;SDS011;11627;51.322;22.816;2022-09-09T05:18:19;14.32;;;8.02;;
22922;SDS011;11627;51.322;22.816;2022-09-09T05:20:47;15.27;;;8.00;;
22922;SDS011;11627;51.322;22.816;2022-09-09T05:23:14;16.33;;;8.73;;
22922;SDS011;11627;51.322;22.816;2022-09-09T05:25:40;15.43;;;8.40;;
22922;SDS011;11627;51.322;22.816;2022-09-09T05:28:06;14.75;;;8.15;;
22922;SDS011;11627;51.322;22.816;2022-09-09T05:30:32;15.68;;;8.98;;
22922;SDS011;11627;51.322;22.816;2022-09-09T05:32:59;16.13;;;8.70;;
22922;SDS011;11627;51.322;22.816;2022-09-09T05:35:25;17.08;;;8.75;;
22922;SDS011;11627;51.322;22.816;2022-09-09T05:37:51;15.75;;;9.25;;
22922;SDS011;11627;51.322;22.816;2022-09-09T05:40:17;14.57;;;9.02;;
22922;SDS011;11627;51.322;22.816;2022-09-09T05:42:43;14.52;;;8.68;;
22922;SDS011;11627;51.322;22.816;2022-09-09T05:45:09;18.95;;;9.02;;
22922;SDS011;11627;51.322;22.816;2022-09-09T05:47:35;14.05;;;8.77;;
22922;SDS011;11627;51.322;22.816;2022-09-09T05:50:02;15.45;;;8.75;;
22922;SDS011;11627;51.322;22.816;2022-09-09T05:52:29;14.80;;;9.60;;
22922;SDS011;11627;51.322;22.816;2022-09-09T05:54:55;14.32;;;9.13;;
22922;SDS011;11627;51.322;22.816;2022-09-09T05:57:22;15.05;;;8.93;;
22922;SDS011;11627;51.322;22.816;2022-09-09T05:59:48;16.63;;;8.88;;
22922;SDS011;11627;51.322;22.816;2022-09-09T06:02:14;13.15;;;8.65;;
22922;SDS011;11627;51.322;22.816;2022-09-09T06:04:40;15.45;;;8.38;;
22922;SDS011;11627;51.322;22.816;2022-09-09T06:07:06;16.85;;;8.80;;
22922;SDS011;11627;51.322;22.816;2022-09-09T06:09:32;17.92;;;9.35;;
22922;SDS011;11627;51.322;22.816;2022-09-09T06:11:58;17.13;;;9.18;;
22922;SDS011;11627;51.322;22.816;2022-09-09T06:14:24;17.48;;;9.10;;
22922;SDS011;11627;51.322;22.816;2022-09-09T06:16:51;15.85;;;9.32;;
22922;SDS011;11627;51.322;22.816;2022-09-09T06:19:17;16.83;;;9.30;;
22922;SDS011;11627;51.322;22.816;2022-09-09T06:21:45;15.10;;;8.93;;
22922;SDS011;11627;51.322;22.816;2022-09-09T06:24:12;15.07;;;9.38;;
22922;SDS011;11627;51.322;22.816;2022-09-09T06:26:42;16.10;;;9.27;;
22922;SDS011;11627;51.322;22.816;2022-09-09T06:29:08;17.10;;;9.10;;
22922;SDS011;11627;51.322;22.816;2022-09-09T06:31:35;18.98;;;11.95;;
22922;SDS011;11627;51.322;22.816;2022-09-09T06:34:04;23.02;;;12.35;;
22922;SDS011;11627;51.322;22.816;2022-09-09T06:36:32;18.73;;;11.60;;
22922;SDS011;11627;51.322;22.816;2022-09-09T06:39:02;18.80;;;11.05;;
22922;SDS011;11627;51.322;22.816;2022-09-09T06:41:29;16.35;;;10.45;;
22922;SDS011;11627;51.322;22.816;2022-09-09T06:43:56;17.73;;;10.07;;
22922;SDS011;11627;51.322;22.816;2022-09-09T06:46:23;18.50;;;10.88;;
22922;SDS011;11627;51.322;22.816;2022-09-09T06:48:55;13.73;;;9.13;;
22922;SDS011;11627;51.322;22.816;2022-09-09T06:51:25;19.02;;;10.90;;
22922;SDS011;11627;51.322;22.816;2022-09-09T06:54:00;19.80;;;10.70;;
22922;SDS011;11627;51.322;22.816;2022-09-09T06:56:28;25.20;;;11.05;;
22922;SDS011;11627;51.322;22.816;2022-09-09T06:59:00;20.58;;;10.65;;
22922;SDS011;11627;51.322;22.816;2022-09-09T07:01:30;20.08;;;11.50;;
22922;SDS011;11627;51.322;22.816;2022-09-09T07:03:58;26.02;;;17.20;;
22922;SDS011;11627;51.322;22.816;2022-09-09T07:08:57;27.00;;;12.02;;
22922;SDS011;11627;51.322;22.816;2022-09-09T07:11:27;18.88;;;11.57;;
22922;SDS011;11627;51.322;22.816;2022-09-09T07:13:58;21.17;;;11.00;;
22922;SDS011;11627;51.322;22.816;2022-09-09T07:16:26;18.52;;;11.02;;
22922;SDS011;11627;51.322;22.816;2022-09-09T07:18:57;16.52;;;10.35;;
22922;SDS011;11627;51.322;22.816;2022-09-09T07:21:23;15.85;;;9.95;;
22922;SDS011;11627;51.322;22.816;2022-09-09T07:23:54;15.98;;;9.93;;
22922;SDS011;11627;51.322;22.816;2022-09-09T07:26:21;15.68;;;9.68;;
22922;SDS011;11627;51.322;22.816;2022-09-09T07:28:50;17.52;;;9.43;;
22922;SDS011;11627;51.322;22.816;2022-09-09T07:31:26;17.27;;;9.90;;
22922;SDS011;11627;51.322;22.816;2022-09-09T07:34:00;20.55;;;9.88;;
22922;SDS011;11627;51.322;22.816;2022-09-09T07:36:45;15.07;;;9.90;;
22922;SDS011;11627;51.322;22.816;2022-09-09T07:39:13;14.48;;;9.13;;
22922;SDS011;11627;51.322;22.816;2022-09-09T07:41:47;16.58;;;9.50;;
22922;SDS011;11627;51.322;22.816;2022-09-09T07:44:19;15.43;;;9.52;;
22922;SDS011;11627;51.322;22.816;2022-09-09T07:46:47;17.48;;;9.75;;
22922;SDS011;11627;51.322;22.816;2022-09-09T07:49:13;18.20;;;9.70;;
22922;SDS011;11627;51.322;22.816;2022-09-09T07:51:41;15.60;;;9.35;;
22922;SDS011;11627;51.322;22.816;2022-09-09T07:54:10;15.18;;;9.68;;
22922;SDS011;11627;51.322;22.816;2022-09-09T07:56:40;14.07;;;9.02;;
22922;SDS011;11627;51.322;22.816;2022-09-09T07:59:07;15.52;;;9.70;;
22922;SDS011;11627;51.322;22.816;2022-09-09T08:01:37;13.55;;;9.13;;
22922;SDS011;11627;51.322;22.816;2022-09-09T08:04:07;13.40;;;8.93;;
22922;SDS011;11627;51.322;22.816;2022-09-09T08:06:43;13.88;;;9.05;;
22922;SDS011;11627;51.322;22.816;2022-09-09T08:09:20;14.88;;;8.75;;
22922;SDS011;11627;51.322;22.816;2022-09-09T08:11:49;14.57;;;9.05;;
22922;SDS011;11627;51.322;22.816;2022-09-09T08:14:17;16.70;;;9.40;;
22922;SDS011;11627;51.322;22.816;2022-09-09T08:16:44;12.93;;;9.10;;
22922;SDS011;11627;51.322;22.816;2022-09-09T08:19:12;14.70;;;8.95;;
22922;SDS011;11627;51.322;22.816;2022-09-09T08:21:40;14.57;;;8.50;;
22922;SDS011;11627;51.322;22.816;2022-09-09T08:24:07;14.00;;;8.40;;
22922;SDS011;11627;51.322;22.816;2022-09-09T08:26:36;14.68;;;9.00;;
22922;SDS011;11627;51.322;22.816;2022-09-09T08:29:07;18.48;;;9.25;;
22922;SDS011;11627;51.322;22.816;2022-09-09T08:31:39;15.63;;;9.40;;
22922;SDS011;11627;51.322;22.816;2022-09-09T08:34:08;16.58;;;8.93;;
22922;SDS011;11627;51.322;22.816;2022-09-09T08:36:39;13.93;;;9.40;;
22922;SDS011;11627;51.322;22.816;2022-09-09T08:39:08;13.82;;;8.82;;
22922;SDS011;11627;51.322;22.816;2022-09-09T08:48:00;13.55;;;9.13;;
22922;SDS011;11627;51.322;22.816;2022-09-09T08:50:39;13.63;;;9.18;;
22922;SDS011;11627;51.322;22.816;2022-09-09T08:53:16;14.57;;;9.52;;
22922;SDS011;11627;51.322;22.816;2022-09-09T08:55:48;12.73;;;8.55;;
22922;SDS011;11627;51.322;22.816;2022-09-09T09:07:04;13.73;;;9.32;;
22922;SDS011;11627;51.322;22.816;2022-09-09T09:13:22;13.52;;;8.55;;
22922;SDS011;11627;51.322;22.816;2022-09-09T09:16:17;13.60;;;8.77;;
22922;SDS011;11627;51.322;22.816;2022-09-09T09:18:57;11.52;;;8.70;;
22922;SDS011;11627;51.322;22.816;2022-09-09T09:24:06;11.70;;;8.30;;
22922;SDS011;11627;51.322;22.816;2022-09-09T09:26:41;12.25;;;8.45;;
22922;SDS011;11627;51.322;22.816;2022-09-09T09:29:11;10.93;;;8.05;;
22922;SDS011;11627;51.322;22.816;2022-09-09T09:31:44;11.38;;;8.13;;
22922;SDS011;11627;51.322;22.816;2022-09-09T09:34:14;11.93;;;7.88;;
22922;SDS011;11627;51.322;22.816;2022-09-09T09:36:41;13.68;;;7.97;;
22922;SDS011;11627;51.322;22.816;2022-09-09T09:41:54;11.38;;;8.35;;
22922;SDS011;11627;51.322;22.816;2022-09-09T09:44:27;13.48;;;8.85;;
22922;SDS011;11627;51.322;22.816;2022-09-09T09:47:10;12.48;;;8.13;;
22922;SDS011;11627;51.322;22.816;2022-09-09T09:52:52;12.70;;;7.78;;
22922;SDS011;11627;51.322;22.816;2022-09-09T09:55:23;13.55;;;8.00;;
22922;SDS011;11627;51.322;22.816;2022-09-09T09:57:51;12.18;;;8.38;;
22922;SDS011;11627;51.322;22.816;2022-09-09T10:02:46;13.80;;;7.95;;
22922;SDS011;11627;51.322;22.816;2022-09-09T10:13:25;11.32;;;7.55;;
22922;SDS011;11627;51.322;22.816;2022-09-09T10:19:37;10.50;;;7.30;;
22922;SDS011;11627;51.322;22.816;2022-09-09T10:35:46;10.18;;;7.25;;
22922;SDS011;11627;51.322;22.816;2022-09-09T10:38:42;9.73;;;7.25;;
22922;SDS011;11627;51.322;22.816;2022-09-09T10:44:05;10.48;;;7.35;;
22922;SDS011;11627;51.322;22.816;2022-09-09T10:47:00;10.68;;;8.23;;
22922;SDS011;11627;51.322;22.816;2022-09-09T10:55:32;10.32;;;7.30;;
22922;SDS011;11627;51.322;22.816;2022-09-09T10:58:09;8.55;;;6.88;;
22922;SDS011;11627;51.322;22.816;2022-09-09T11:03:16;8.88;;;6.65;;
22922;SDS011;11627;51.322;22.816;2022-09-09T11:05:55;9.57;;;7.13;;
22922;SDS011;11627;51.322;22.816;2022-09-09T11:08:31;10.23;;;6.75;;
22922;SDS011;11627;51.322;22.816;2022-09-09T11:11:02;10.90;;;7.30;;
22922;SDS011;11627;51.322;22.816;2022-09-09T11:13:37;9.60;;;6.50;;
22922;SDS011;11627;51.322;22.816;2022-09-09T11:22:04;9.77;;;6.93;;
22922;SDS011;11627;51.322;22.816;2022-09-09T11:28:01;12.40;;;7.13;;
22922;SDS011;11627;51.322;22.816;2022-09-09T11:34:01;11.15;;;7.47;;
22922;SDS011;11627;51.322;22.816;2022-09-09T11:37:47;10.88;;;7.40;;
22922;SDS011;11627;51.322;22.816;2022-09-09T11:42:34;9.65;;;7.38;;
22922;SDS011;11627;51.322;22.816;2022-09-09T11:45:15;10.85;;;7.20;;
22922;SDS011;11627;51.322;22.816;2022-09-09T11:47:54;9.48;;;7.40;;
22922;SDS011;11627;51.322;22.816;2022-09-09T11:50:37;14.18;;;7.72;;
22922;SDS011;11627;51.322;22.816;2022-09-09T11:53:17;10.95;;;7.80;;
22922;SDS011;11627;51.322;22.816;2022-09-09T11:55:47;12.27;;;8.20;;
22922;SDS011;11627;51.322;22.816;2022-09-09T11:58:53;13.73;;;7.82;;
22922;SDS011;11627;51.322;22.816;2022-09-09T12:01:33;15.80;;;8.32;;
22922;SDS011;11627;51.322;22.816;2022-09-09T12:04:13;11.40;;;7.72;;
22922;SDS011;11627;51.322;22.816;2022-09-09T12:07:00;10.23;;;7.53;;
22922;SDS011;11627;51.322;22.816;2022-09-09T12:09:51;12.70;;;8.02;;
22922;SDS011;11627;51.322;22.816;2022-09-09T12:12:27;14.57;;;8.35;;
22922;SDS011;11627;51.322;22.816;2022-09-09T12:17:40;11.73;;;8.15;;
22922;SDS011;11627;51.322;22.816;2022-09-09T12:20:36;10.23;;;8.30;;
22922;SDS011;11627;51.322;22.816;2022-09-09T12:25:56;14.63;;;9.02;;
22922;SDS011;11627;51.322;22.816;2022-09-09T12:31:24;13.48;;;8.70;;
22922;SDS011;11627;51.322;22.816;2022-09-09T12:34:10;13.23;;;8.45;;
22922;SDS011;11627;51.322;22.816;2022-09-09T12:36:42;10.98;;;8.13;;
22922;SDS011;11627;51.322;22.816;2022-09-09T12:42:16;12.65;;;8.55;;
22922;SDS011;11627;51.322;22.816;2022-09-09T12:50:02;11.07;;;8.45;;
22922;SDS011;11627;51.322;22.816;2022-09-09T12:52:31;12.38;;;8.70;;
22922;SDS011;11627;51.322;22.816;2022-09-09T12:55:02;12.00;;;9.18;;
22922;SDS011;11627;51.322;22.816;2022-09-09T12:57:33;14.13;;;8.50;;
22922;SDS011;11627;51.322;22.816;2022-09-09T13:00:07;13.40;;;8.70;;
22922;SDS011;11627;51.322;22.816;2022-09-09T13:02:46;14.48;;;10.23;;
22922;SDS011;11627;51.322;22.816;2022-09-09T13:08:09;15.55;;;9.60;;
22922;SDS011;11627;51.322;22.816;2022-09-09T13:10:38;11.60;;;8.85;;
22922;SDS011;11627;51.322;22.816;2022-09-09T13:13:23;13.38;;;9.68;;
22922;SDS011;11627;51.322;22.816;2022-09-09T13:16:22;12.77;;;9.63;;
22922;SDS011;11627;51.322;22.816;2022-09-09T13:18:55;13.57;;;9.85;;
22922;SDS011;11627;51.322;22.816;2022-09-09T13:21:30;13.02;;;9.52;;
22922;SDS011;11627;51.322;22.816;2022-09-09T13:24:02;12.60;;;9.40;;
22922;SDS011;11627;51.322;22.816;2022-09-09T13:26:32;13.80;;;8.68;;
22922;SDS011;11627;51.322;22.816;2022-09-09T13:32:07;16.00;;;10.18;;
22922;SDS011;11627;51.322;22.816;2022-09-09T13:34:50;12.43;;;9.32;;
22922;SDS011;11627;51.322;22.816;2022-09-09T13:40:12;12.05;;;8.90;;
22922;SDS011;11627;51.322;22.816;2022-09-09T13:42:44;12.50;;;10.15;;
22922;SDS011;11627;51.322;22.816;2022-09-09T13:45:20;14.13;;;9.98;;
22922;SDS011;11627;51.322;22.816;2022-09-09T13:47:49;14.15;;;9.77;;
22922;SDS011;11627;51.322;22.816;2022-09-09T13:52:50;15.90;;;10.68;;
22922;SDS011;11627;51.322;22.816;2022-09-09T13:55:20;15.50;;;10.07;;
22922;SDS011;11627;51.322;22.816;2022-09-09T13:57:55;13.65;;;10.00;;
22922;SDS011;11627;51.322;22.816;2022-09-09T14:00:26;13.77;;;10.38;;
22922;SDS011;11627;51.322;22.816;2022-09-09T14:02:56;16.13;;;10.88;;
22922;SDS011;11627;51.322;22.816;2022-09-09T14:05:23;18.77;;;11.55;;
22922;SDS011;11627;51.322;22.816;2022-09-09T14:07:51;15.98;;;10.65;;
22922;SDS011;11627;51.322;22.816;2022-09-09T14:10:17;17.63;;;12.15;;
22922;SDS011;11627;51.322;22.816;2022-09-09T14:12:43;17.92;;;12.07;;
22922;SDS011;11627;51.322;22.816;2022-09-09T14:15:09;16.40;;;11.38;;
22922;SDS011;11627;51.322;22.816;2022-09-09T14:17:37;18.02;;;12.10;;
22922;SDS011;11627;51.322;22.816;2022-09-09T14:20:05;18.70;;;12.30;;
22922;SDS011;11627;51.322;22.816;2022-09-09T14:22:35;18.40;;;12.05;;
22922;SDS011;11627;51.322;22.816;2022-09-09T14:25:03;17.75;;;12.23;;
22922;SDS011;11627;51.322;22.816;2022-09-09T14:27:32;22.60;;;13.15;;
22922;SDS011;11627;51.322;22.816;2022-09-09T14:29:59;21.33;;;13.32;;
22922;SDS011;11627;51.322;22.816;2022-09-09T14:32:27;19.42;;;12.73;;
22922;SDS011;11627;51.322;22.816;2022-09-09T14:34:54;19.70;;;13.02;;
22922;SDS011;11627;51.322;22.816;2022-09-09T14:37:20;21.13;;;13.00;;
22922;SDS011;11627;51.322;22.816;2022-09-09T14:39:46;21.80;;;14.13;;
22922;SDS011;11627;51.322;22.816;2022-09-09T14:42:19;24.63;;;13.50;;
22922;SDS011;11627;51.322;22.816;2022-09-09T14:44:46;20.98;;;13.40;;
22922;SDS011;11627;51.322;22.816;2022-09-09T14:47:16;23.52;;;14.48;;
22922;SDS011;11627;51.322;22.816;2022-09-09T14:49:48;21.05;;;13.32;;
22922;SDS011;11627;51.322;22.816;2022-09-09T14:52:15;21.83;;;13.82;;
22922;SDS011;11627;51.322;22.816;2022-09-09T14:54:41;23.15;;;14.77;;
22922;SDS011;11627;51.322;22.816;2022-09-09T14:57:07;20.92;;;13.32;;
22922;SDS011;11627;51.322;22.816;2022-09-09T14:59:33;23.13;;;14.55;;
22922;SDS011;11627;51.322;22.816;2022-09-09T15:01:59;23.15;;;14.95;;
22922;SDS011;11627;51.322;22.816;2022-09-09T15:04:29;22.45;;;14.95;;
22922;SDS011;11627;51.322;22.816;2022-09-09T15:06:55;23.52;;;14.23;;
22922;SDS011;11627;51.322;22.816;2022-09-09T15:09:21;28.08;;;17.33;;
22922;SDS011;11627;51.322;22.816;2022-09-09T15:11:48;24.42;;;15.15;;
22922;SDS011;11627;51.322;22.816;2022-09-09T15:14:14;25.38;;;15.32;;
22922;SDS011;11627;51.322;22.816;2022-09-09T15:16:40;24.95;;;15.15;;
22922;SDS011;11627;51.322;22.816;2022-09-09T15:19:06;28.10;;;15.55;;
22922;SDS011;11627;51.322;22.816;2022-09-09T15:21:33;23.35;;;15.40;;
22922;SDS011;11627;51.322;22.816;2022-09-09T15:24:00;28.50;;;16.98;;
22922;SDS011;11627;51.322;22.816;2022-09-09T15:26:27;23.98;;;15.90;;
22922;SDS011;11627;51.322;22.816;2022-09-09T15:28:55;24.38;;;15.98;;
22922;SDS011;11627;51.322;22.816;2022-09-09T15:31:24;27.38;;;15.98;;
22922;SDS011;11627;51.322;22.816;2022-09-09T15:33:59;25.38;;;16.77;;
22922;SDS011;11627;51.322;22.816;2022-09-09T15:36:38;27.58;;;16.65;;
22922;SDS011;11627;51.322;22.816;2022-09-09T15:39:16;25.17;;;16.30;;
22922;SDS011;11627;51.322;22.816;2022-09-09T15:41:46;25.80;;;16.33;;
22922;SDS011;11627;51.322;22.816;2022-09-09T15:44:13;25.42;;;17.02;;
22922;SDS011;11627;51.322;22.816;2022-09-09T15:49:20;30.98;;;17.33;;
22922;SDS011;11627;51.322;22.816;2022-09-09T15:51:59;24.35;;;15.18;;
22922;SDS011;11627;51.322;22.816;2022-09-09T15:54:30;23.15;;;14.57;;
22922;SDS011;11627;51.322;22.816;2022-09-09T15:57:02;19.45;;;13.13;;
22922;SDS011;11627;51.322;22.816;2022-09-09T15:59:37;19.70;;;13.38;;
22922;SDS011;11627;51.322;22.816;2022-09-09T16:02:03;21.58;;;13.95;;
22922;SDS011;11627;51.322;22.816;2022-09-09T16:04:30;19.17;;;12.85;;
22922;SDS011;11627;51.322;22.816;2022-09-09T16:06:57;21.95;;;13.52;;
22922;SDS011;11627;51.322;22.816;2022-09-09T16:09:28;24.35;;;14.45;;
22922;SDS011;11627;51.322;22.816;2022-09-09T16:11:56;20.67;;;13.65;;
22922;SDS011;11627;51.322;22.816;2022-09-09T16:14:25;23.83;;;14.75;;
22922;SDS011;11627;51.322;22.816;2022-09-09T16:16:52;20.10;;;13.85;;
22922;SDS011;11627;51.322;22.816;2022-09-09T16:19:18;23.77;;;13.55;;
22922;SDS011;11627;51.322;22.816;2022-09-09T16:21:46;22.60;;;13.77;;
22922;SDS011;11627;51.322;22.816;2022-09-09T16:24:14;22.45;;;14.25;;
22922;SDS011;11627;51.322;22.816;2022-09-09T16:26:45;22.23;;;13.18;;
22922;SDS011;11627;51.322;22.816;2022-09-09T16:29:14;21.05;;;13.65;;
22922;SDS011;11627;51.322;22.816;2022-09-09T16:31:42;22.15;;;13.23;;
22922;SDS011;11627;51.322;22.816;2022-09-09T16:34:09;18.02;;;11.57;;
22922;SDS011;11627;51.322;22.816;2022-09-09T16:36:36;21.92;;;12.85;;
22922;SDS011;11627;51.322;22.816;2022-09-09T16:39:13;21.48;;;12.85;;
22922;SDS011;11627;51.322;22.816;2022-09-09T16:41:42;20.02;;;13.20;;
22922;SDS011;11627;51.322;22.816;2022-09-09T16:44:11;19.80;;;11.90;;
22922;SDS011;11627;51.322;22.816;2022-09-09T16:46:43;20.75;;;12.40;;
22922;SDS011;11627;51.322;22.816;2022-09-09T16:49:13;19.58;;;12.00;;
22922;SDS011;11627;51.322;22.816;2022-09-09T16:51:42;19.45;;;11.35;;
22922;SDS011;11627;51.322;22.816;2022-09-09T16:54:13;17.58;;;11.05;;
22922;SDS011;11627;51.322;22.816;2022-09-09T16:56:42;17.85;;;10.73;;
22922;SDS011;11627;51.322;22.816;2022-09-09T16:59:12;14.65;;;10.27;;
22922;SDS011;11627;51.322;22.816;2022-09-09T17:01:41;16.45;;;9.90;;
22922;SDS011;11627;51.322;22.816;2022-09-09T17:04:10;16.33;;;10.45;;
22922;SDS011;11627;51.322;22.816;2022-09-09T17:06:45;17.45;;;10.15;;
22922;SDS011;11627;51.322;22.816;2022-09-09T17:09:14;17.88;;;10.60;;
22922;SDS011;11627;51.322;22.816;2022-09-09T17:11:41;15.07;;;9.50;;
22922;SDS011;11627;51.322;22.816;2022-09-09T17:14:07;12.43;;;9.32;;
22922;SDS011;11627;51.322;22.816;2022-09-09T17:16:38;17.70;;;10.43;;
22922;SDS011;11627;51.322;22.816;2022-09-09T17:19:05;17.88;;;10.68;;
22922;SDS011;11627;51.322;22.816;2022-09-09T17:21:33;15.45;;;10.38;;
22922;SDS011;11627;51.322;22.816;2022-09-09T17:24:02;13.15;;;9.40;;
22922;SDS011;11627;51.322;22.816;2022-09-09T17:26:30;14.30;;;9.70;;
22922;SDS011;11627;51.322;22.816;2022-09-09T17:28:59;13.60;;;9.32;;
22922;SDS011;11627;51.322;22.816;2022-09-09T17:31:27;13.52;;;9.13;;
22922;SDS011;11627;51.322;22.816;2022-09-09T17:33:56;15.73;;;9.13;;
22922;SDS011;11627;51.322;22.816;2022-09-09T17:36:25;15.00;;;10.23;;